sensor_id;sensor_type;location;lat;lon;timestamp;P1;durP1;ratioP1;P2;durP2;ratioP2
20619;SDS011;10469;42.720;23.252;2023-03-01T00:01:50;5.88;;;4.50;;
20619;SDS011;10469;42.720;23.252;2023-03-01T00:04:16;6.63;;;5.13;;
20619;SDS011;10469;42.720;23.252;2023-03-01T00:06:44;6.13;;;4.57;;
20619;SDS011;10469;42.720;23.252;2023-03-01T00:09:13;5.95;;;4.80;;
20619;SDS011;10469;42.720;23.252;2023-03-01T00:11:39;5.35;;;4.50;;
20619;SDS011;10469;42.720;23.252;2023-03-01T00:14:05;7.00;;;4.70;;
20619;SDS011;10469;42.720;23.252;2023-03-01T00:16:38;7.15;;;5.00;;
20619;SDS011;10469;42.720;23.252;2023-03-01T00:19:06;6.40;;;5.13;;
20619;SDS011;10469;42.720;23.252;2023-03-01T00:21:34;5.43;;;4.72;;
20619;SDS011;10469;42.720;23.252;2023-03-01T00:24:00;6.82;;;5.32;;
20619;SDS011;10469;42.720;23.252;2023-03-01T00:26:27;5.45;;;4.78;;
20619;SDS011;10469;42.720;23.252;2023-03-01T00:28:53;5.45;;;4.55;;
20619;SDS011;10469;42.720;23.252;2023-03-01T00:31:21;5.65;;;4.93;;
20619;SDS011;10469;42.720;23.252;2023-03-01T00:33:48;5.40;;;3.88;;
20619;SDS011;10469;42.720;23.252;2023-03-01T00:36:22;6.85;;;4.00;;
20619;SDS011;10469;42.720;23.252;2023-03-01T00:38:50;4.28;;;3.50;;
20619;SDS011;10469;42.720;23.252;2023-03-01T00:41:16;3.85;;;3.45;;
20619;SDS011;10469;42.720;23.252;2023-03-01T00:43:43;4.03;;;3.55;;
20619;SDS011;10469;42.720;23.252;2023-03-01T00:46:10;4.78;;;3.30;;
20619;SDS011;10469;42.720;23.252;2023-03-01T00:48:47;3.83;;;3.40;;
20619;SDS011;10469;42.720;23.252;2023-03-01T00:51:14;4.68;;;3.33;;
20619;SDS011;10469;42.720;23.252;2023-03-01T00:53:41;3.28;;;3.03;;
20619;SDS011;10469;42.720;23.252;2023-03-01T00:56:08;3.85;;;3.17;;
20619;SDS011;10469;42.720;23.252;2023-03-01T00:58:35;3.63;;;3.33;;
20619;SDS011;10469;42.720;23.252;2023-03-01T01:01:06;4.20;;;3.50;;
20619;SDS011;10469;42.720;23.252;2023-03-01T01:03:47;4.13;;;3.38;;
20619;SDS011;10469;42.720;23.252;2023-03-01T01:06:19;4.00;;;3.42;;
20619;SDS011;10469;42.720;23.252;2023-03-01T01:08:46;3.58;;;3.00;;
20619;SDS011;10469;42.720;23.252;2023-03-01T01:11:12;4.60;;;3.22;;
20619;SDS011;10469;42.720;23.252;2023-03-01T01:13:39;4.50;;;3.97;;
20619;SDS011;10469;42.720;23.252;2023-03-01T01:16:05;3.60;;;3.28;;
20619;SDS011;10469;42.720;23.252;2023-03-01T01:18:31;3.90;;;3.20;;
20619;SDS011;10469;42.720;23.252;2023-03-01T01:20:56;4.30;;;2.90;;
20619;SDS011;10469;42.720;23.252;2023-03-01T01:23:22;4.13;;;3.72;;
20619;SDS011;10469;42.720;23.252;2023-03-01T01:25:47;2.88;;;2.60;;
20619;SDS011;10469;42.720;23.252;2023-03-01T01:28:13;3.53;;;3.22;;
20619;SDS011;10469;42.720;23.252;2023-03-01T01:30:39;3.53;;;3.20;;
20619;SDS011;10469;42.720;23.252;2023-03-01T01:33:04;3.22;;;2.80;;
20619;SDS011;10469;42.720;23.252;2023-03-01T01:35:30;3.83;;;3.40;;
20619;SDS011;10469;42.720;23.252;2023-03-01T01:37:55;3.53;;;3.20;;
20619;SDS011;10469;42.720;23.252;2023-03-01T01:40:21;3.58;;;3.28;;
20619;SDS011;10469;42.720;23.252;2023-03-01T01:42:46;3.28;;;2.97;;
20619;SDS011;10469;42.720;23.252;2023-03-01T01:48:03;3.53;;;3.22;;
20619;SDS011;10469;42.720;23.252;2023-03-01T01:50:31;3.60;;;3.30;;
20619;SDS011;10469;42.720;23.252;2023-03-01T01:53:04;3.60;;;3.10;;
20619;SDS011;10469;42.720;23.252;2023-03-01T01:55:35;3.17;;;2.88;;
20619;SDS011;10469;42.720;23.252;2023-03-01T01:58:06;3.20;;;2.90;;
20619;SDS011;10469;42.720;23.252;2023-03-01T02:00:35;3.20;;;2.90;;
20619;SDS011;10469;42.720;23.252;2023-03-01T02:03:07;3.30;;;3.00;;
20619;SDS011;10469;42.720;23.252;2023-03-01T02:05:40;2.70;;;2.50;;
20619;SDS011;10469;42.720;23.252;2023-03-01T02:08:14;3.30;;;2.75;;
20619;SDS011;10469;42.720;23.252;2023-03-01T02:10:41;3.33;;;3.03;;
20619;SDS011;10469;42.720;23.252;2023-03-01T02:13:07;3.53;;;3.22;;
20619;SDS011;10469;42.720;23.252;2023-03-01T02:15:33;2.90;;;2.70;;
20619;SDS011;10469;42.720;23.252;2023-03-01T02:18:00;3.20;;;2.88;;
20619;SDS011;10469;42.720;23.252;2023-03-01T02:22:59;3.63;;;3.25;;
20619;SDS011;10469;42.720;23.252;2023-03-01T02:28:05;3.72;;;3.33;;
20619;SDS011;10469;42.720;23.252;2023-03-01T02:30:36;6.47;;;4.20;;
20619;SDS011;10469;42.720;23.252;2023-03-01T02:33:03;8.32;;;4.55;;
20619;SDS011;10469;42.720;23.252;2023-03-01T02:35:34;7.68;;;4.47;;
20619;SDS011;10469;42.720;23.252;2023-03-01T02:38:03;6.13;;;4.38;;
20619;SDS011;10469;42.720;23.252;2023-03-01T02:40:31;4.10;;;3.70;;
20619;SDS011;10469;42.720;23.252;2023-03-01T02:42:59;4.95;;;4.13;;
20619;SDS011;10469;42.720;23.252;2023-03-01T02:45:25;4.88;;;4.43;;
20619;SDS011;10469;42.720;23.252;2023-03-01T02:47:55;4.95;;;4.28;;
20619;SDS011;10469;42.720;23.252;2023-03-01T02:53:00;4.80;;;4.20;;
20619;SDS011;10469;42.720;23.252;2023-03-01T02:55:35;4.25;;;3.85;;
20619;SDS011;10469;42.720;23.252;2023-03-01T02:58:02;4.53;;;4.13;;
20619;SDS011;10469;42.720;23.252;2023-03-01T03:00:30;4.13;;;3.72;;
20619;SDS011;10469;42.720;23.252;2023-03-01T03:03:15;4.72;;;4.05;;
20619;SDS011;10469;42.720;23.252;2023-03-01T03:05:45;5.13;;;4.47;;
20619;SDS011;10469;42.720;23.252;2023-03-01T03:08:11;4.55;;;3.67;;
20619;SDS011;10469;42.720;23.252;2023-03-01T03:10:40;7.28;;;4.90;;
20619;SDS011;10469;42.720;23.252;2023-03-01T03:13:12;7.75;;;5.15;;
20619;SDS011;10469;42.720;23.252;2023-03-01T03:15:39;7.90;;;5.88;;
20619;SDS011;10469;42.720;23.252;2023-03-01T03:18:08;6.45;;;4.75;;
20619;SDS011;10469;42.720;23.252;2023-03-01T03:20:35;6.25;;;4.78;;
20619;SDS011;10469;42.720;23.252;2023-03-01T03:23:02;7.75;;;4.63;;
20619;SDS011;10469;42.720;23.252;2023-03-01T03:25:29;5.97;;;5.00;;
20619;SDS011;10469;42.720;23.252;2023-03-01T03:27:55;4.25;;;3.50;;
20619;SDS011;10469;42.720;23.252;2023-03-01T03:30:27;5.43;;;4.20;;
20619;SDS011;10469;42.720;23.252;2023-03-01T03:32:55;4.88;;;3.92;;
20619;SDS011;10469;42.720;23.252;2023-03-01T03:35:25;5.15;;;4.30;;
20619;SDS011;10469;42.720;23.252;2023-03-01T03:38:01;4.25;;;3.55;;
20619;SDS011;10469;42.720;23.252;2023-03-01T03:40:44;3.92;;;3.50;;
20619;SDS011;10469;42.720;23.252;2023-03-01T03:43:13;4.63;;;3.42;;
20619;SDS011;10469;42.720;23.252;2023-03-01T03:45:40;4.60;;;3.58;;
20619;SDS011;10469;42.720;23.252;2023-03-01T03:48:07;3.90;;;3.50;;
20619;SDS011;10469;42.720;23.252;2023-03-01T03:50:34;4.18;;;3.58;;
20619;SDS011;10469;42.720;23.252;2023-03-01T03:53:00;3.53;;;3.22;;
20619;SDS011;10469;42.720;23.252;2023-03-01T03:55:27;4.22;;;3.67;;
20619;SDS011;10469;42.720;23.252;2023-03-01T03:57:56;5.07;;;3.83;;
20619;SDS011;10469;42.720;23.252;2023-03-01T04:00:23;4.40;;;3.90;;
20619;SDS011;10469;42.720;23.252;2023-03-01T04:02:49;4.45;;;4.05;;
20619;SDS011;10469;42.720;23.252;2023-03-01T04:05:16;4.40;;;4.00;;
20619;SDS011;10469;42.720;23.252;2023-03-01T04:07:44;4.30;;;3.90;;
20619;SDS011;10469;42.720;23.252;2023-03-01T04:10:11;4.10;;;3.70;;
20619;SDS011;10469;42.720;23.252;2023-03-01T04:12:39;4.45;;;2.90;;
20619;SDS011;10469;42.720;23.252;2023-03-01T04:15:05;3.50;;;3.20;;
20619;SDS011;10469;42.720;23.252;2023-03-01T04:17:44;3.60;;;3.30;;
20619;SDS011;10469;42.720;23.252;2023-03-01T04:20:12;3.45;;;3.15;;
20619;SDS011;10469;42.720;23.252;2023-03-01T04:22:42;4.68;;;2.47;;
20619;SDS011;10469;42.720;23.252;2023-03-01T04:25:11;4.25;;;1.98;;
20619;SDS011;10469;42.720;23.252;2023-03-01T04:27:39;2.92;;;2.13;;
20619;SDS011;10469;42.720;23.252;2023-03-01T04:30:06;2.17;;;1.98;;
20619;SDS011;10469;42.720;23.252;2023-03-01T04:32:32;2.47;;;1.85;;
20619;SDS011;10469;42.720;23.252;2023-03-01T04:34:58;2.40;;;1.80;;
20619;SDS011;10469;42.720;23.252;2023-03-01T04:37:23;1.98;;;1.73;;
20619;SDS011;10469;42.720;23.252;2023-03-01T04:39:49;4.22;;;2.10;;
20619;SDS011;10469;42.720;23.252;2023-03-01T04:42:15;1.90;;;1.52;;
20619;SDS011;10469;42.720;23.252;2023-03-01T04:44:41;1.70;;;1.60;;
20619;SDS011;10469;42.720;23.252;2023-03-01T04:47:07;1.98;;;1.85;;
20619;SDS011;10469;42.720;23.252;2023-03-01T04:49:33;2.00;;;1.70;;
20619;SDS011;10469;42.720;23.252;2023-03-01T04:51:58;1.63;;;1.52;;
20619;SDS011;10469;42.720;23.252;2023-03-01T04:54:27;2.03;;;1.90;;
20619;SDS011;10469;42.720;23.252;2023-03-01T04:56:54;1.80;;;1.70;;
20619;SDS011;10469;42.720;23.252;2023-03-01T04:59:20;2.13;;;1.90;;
20619;SDS011;10469;42.720;23.252;2023-03-01T05:01:51;2.40;;;1.95;;
20619;SDS011;10469;42.720;23.252;2023-03-01T05:04:20;1.98;;;1.83;;
20619;SDS011;10469;42.720;23.252;2023-03-01T05:06:49;2.88;;;2.05;;
20619;SDS011;10469;42.720;23.252;2023-03-01T05:09:15;3.00;;;2.28;;
20619;SDS011;10469;42.720;23.252;2023-03-01T05:11:41;3.63;;;2.42;;
20619;SDS011;10469;42.720;23.252;2023-03-01T05:14:07;2.17;;;1.85;;
20619;SDS011;10469;42.720;23.252;2023-03-01T05:16:34;5.75;;;2.28;;
20619;SDS011;10469;42.720;23.252;2023-03-01T05:19:01;4.07;;;2.55;;
20619;SDS011;10469;42.720;23.252;2023-03-01T05:21:39;3.47;;;3.15;;
20619;SDS011;10469;42.720;23.252;2023-03-01T05:24:25;20.50;;;16.38;;
20619;SDS011;10469;42.720;23.252;2023-03-01T05:26:51;23.40;;;19.40;;
20619;SDS011;10469;42.720;23.252;2023-03-01T05:29:20;17.20;;;11.30;;
20619;SDS011;10469;42.720;23.252;2023-03-01T05:36:52;6.03;;;4.85;;
20619;SDS011;10469;42.720;23.252;2023-03-01T05:39:19;7.43;;;4.63;;
20619;SDS011;10469;42.720;23.252;2023-03-01T05:41:51;8.60;;;4.60;;
20619;SDS011;10469;42.720;23.252;2023-03-01T05:44:18;12.02;;;5.63;;
20619;SDS011;10469;42.720;23.252;2023-03-01T05:46:44;7.75;;;5.63;;
20619;SDS011;10469;42.720;23.252;2023-03-01T05:49:10;9.90;;;7.25;;
20619;SDS011;10469;42.720;23.252;2023-03-01T05:51:38;8.98;;;6.35;;
20619;SDS011;10469;42.720;23.252;2023-03-01T05:54:04;9.85;;;6.82;;
20619;SDS011;10469;42.720;23.252;2023-03-01T05:56:33;10.50;;;7.22;;
20619;SDS011;10469;42.720;23.252;2023-03-01T05:59:00;11.15;;;6.75;;
20619;SDS011;10469;42.720;23.252;2023-03-01T06:01:26;13.20;;;7.13;;
20619;SDS011;10469;42.720;23.252;2023-03-01T06:03:52;10.50;;;6.85;;
20619;SDS011;10469;42.720;23.252;2023-03-01T06:06:17;10.10;;;7.30;;
20619;SDS011;10469;42.720;23.252;2023-03-01T06:08:43;11.70;;;6.80;;
20619;SDS011;10469;42.720;23.252;2023-03-01T06:11:08;10.20;;;6.80;;
20619;SDS011;10469;42.720;23.252;2023-03-01T06:13:34;8.50;;;5.85;;
20619;SDS011;10469;42.720;23.252;2023-03-01T06:16:00;8.82;;;6.22;;
20619;SDS011;10469;42.720;23.252;2023-03-01T06:18:25;9.32;;;5.95;;
20619;SDS011;10469;42.720;23.252;2023-03-01T06:20:54;10.38;;;6.60;;
20619;SDS011;10469;42.720;23.252;2023-03-01T06:23:21;9.35;;;6.25;;
20619;SDS011;10469;42.720;23.252;2023-03-01T06:25:47;8.48;;;6.78;;
20619;SDS011;10469;42.720;23.252;2023-03-01T06:28:13;12.02;;;6.47;;
20619;SDS011;10469;42.720;23.252;2023-03-01T06:30:38;14.10;;;6.78;;
20619;SDS011;10469;42.720;23.252;2023-03-01T06:33:04;7.68;;;6.00;;
20619;SDS011;10469;42.720;23.252;2023-03-01T06:35:29;8.15;;;5.80;;
20619;SDS011;10469;42.720;23.252;2023-03-01T06:37:56;10.82;;;6.03;;
20619;SDS011;10469;42.720;23.252;2023-03-01T06:40:23;7.55;;;5.13;;
20619;SDS011;10469;42.720;23.252;2023-03-01T06:42:49;7.38;;;5.53;;
20619;SDS011;10469;42.720;23.252;2023-03-01T06:45:15;9.70;;;6.15;;
20619;SDS011;10469;42.720;23.252;2023-03-01T06:47:43;6.93;;;4.55;;
20619;SDS011;10469;42.720;23.252;2023-03-01T06:50:08;9.73;;;5.57;;
20619;SDS011;10469;42.720;23.252;2023-03-01T06:52:35;8.57;;;5.05;;
20619;SDS011;10469;42.720;23.252;2023-03-01T06:55:00;6.45;;;4.85;;
20619;SDS011;10469;42.720;23.252;2023-03-01T06:57:26;9.13;;;5.25;;
20619;SDS011;10469;42.720;23.252;2023-03-01T06:59:52;7.20;;;5.35;;
20619;SDS011;10469;42.720;23.252;2023-03-01T07:02:18;7.93;;;5.45;;
20619;SDS011;10469;42.720;23.252;2023-03-01T07:04:44;11.48;;;6.15;;
20619;SDS011;10469;42.720;23.252;2023-03-01T07:07:10;8.85;;;4.80;;
20619;SDS011;10469;42.720;23.252;2023-03-01T07:09:36;6.35;;;3.78;;
20619;SDS011;10469;42.720;23.252;2023-03-01T07:12:02;5.68;;;4.68;;
20619;SDS011;10469;42.720;23.252;2023-03-01T07:14:27;8.98;;;4.18;;
20619;SDS011;10469;42.720;23.252;2023-03-01T07:16:54;4.40;;;3.72;;
20619;SDS011;10469;42.720;23.252;2023-03-01T07:19:20;9.15;;;3.85;;
20619;SDS011;10469;42.720;23.252;2023-03-01T07:21:47;5.45;;;4.20;;
20619;SDS011;10469;42.720;23.252;2023-03-01T07:24:12;5.50;;;4.60;;
20619;SDS011;10469;42.720;23.252;2023-03-01T07:26:38;7.07;;;4.60;;
20619;SDS011;10469;42.720;23.252;2023-03-01T07:29:05;8.10;;;3.92;;
20619;SDS011;10469;42.720;23.252;2023-03-01T07:31:34;7.30;;;4.00;;
20619;SDS011;10469;42.720;23.252;2023-03-01T07:34:00;11.02;;;4.63;;
20619;SDS011;10469;42.720;23.252;2023-03-01T07:36:26;7.63;;;4.80;;
20619;SDS011;10469;42.720;23.252;2023-03-01T07:38:51;6.57;;;4.43;;
20619;SDS011;10469;42.720;23.252;2023-03-01T07:41:17;5.88;;;4.00;;
20619;SDS011;10469;42.720;23.252;2023-03-01T07:43:43;5.95;;;4.38;;
20619;SDS011;10469;42.720;23.252;2023-03-01T07:46:09;7.20;;;4.47;;
20619;SDS011;10469;42.720;23.252;2023-03-01T07:48:35;6.53;;;4.05;;
20619;SDS011;10469;42.720;23.252;2023-03-01T07:51:01;6.57;;;4.10;;
20619;SDS011;10469;42.720;23.252;2023-03-01T07:53:28;6.70;;;4.13;;
20619;SDS011;10469;42.720;23.252;2023-03-01T07:58:38;6.20;;;4.40;;
20619;SDS011;10469;42.720;23.252;2023-03-01T08:01:06;8.88;;;3.85;;
20619;SDS011;10469;42.720;23.252;2023-03-01T08:03:34;5.38;;;3.85;;
20619;SDS011;10469;42.720;23.252;2023-03-01T08:06:01;6.80;;;4.10;;
20619;SDS011;10469;42.720;23.252;2023-03-01T08:08:28;6.60;;;3.70;;
20619;SDS011;10469;42.720;23.252;2023-03-01T08:10:57;4.70;;;3.40;;
20619;SDS011;10469;42.720;23.252;2023-03-01T08:13:24;5.85;;;3.55;;
20619;SDS011;10469;42.720;23.252;2023-03-01T08:15:49;9.43;;;3.95;;
20619;SDS011;10469;42.720;23.252;2023-03-01T08:18:15;5.13;;;3.50;;
20619;SDS011;10469;42.720;23.252;2023-03-01T08:20:42;5.38;;;3.75;;
20619;SDS011;10469;42.720;23.252;2023-03-01T08:23:07;3.53;;;3.22;;
20619;SDS011;10469;42.720;23.252;2023-03-01T08:25:33;6.45;;;3.42;;
20619;SDS011;10469;42.720;23.252;2023-03-01T08:27:58;4.47;;;3.22;;
20619;SDS011;10469;42.720;23.252;2023-03-01T08:30:24;3.60;;;3.13;;
20619;SDS011;10469;42.720;23.252;2023-03-01T08:32:50;3.95;;;3.13;;
20619;SDS011;10469;42.720;23.252;2023-03-01T08:35:16;3.25;;;2.65;;
20619;SDS011;10469;42.720;23.252;2023-03-01T08:37:42;3.95;;;2.63;;
20619;SDS011;10469;42.720;23.252;2023-03-01T08:40:08;5.93;;;3.40;;
20619;SDS011;10469;42.720;23.252;2023-03-01T08:42:35;3.55;;;3.25;;
20619;SDS011;10469;42.720;23.252;2023-03-01T08:45:01;3.58;;;3.10;;
20619;SDS011;10469;42.720;23.252;2023-03-01T08:47:28;4.10;;;3.10;;
20619;SDS011;10469;42.720;23.252;2023-03-01T08:49:53;3.45;;;3.15;;
20619;SDS011;10469;42.720;23.252;2023-03-01T08:52:19;5.57;;;3.53;;
20619;SDS011;10469;42.720;23.252;2023-03-01T08:54:47;6.82;;;3.88;;
20619;SDS011;10469;42.720;23.252;2023-03-01T08:57:13;5.63;;;4.03;;
20619;SDS011;10469;42.720;23.252;2023-03-01T08:59:38;5.60;;;3.83;;
20619;SDS011;10469;42.720;23.252;2023-03-01T09:02:04;8.98;;;4.32;;
20619;SDS011;10469;42.720;23.252;2023-03-01T09:04:35;4.22;;;3.63;;
20619;SDS011;10469;42.720;23.252;2023-03-01T09:07:00;4.65;;;3.88;;
20619;SDS011;10469;42.720;23.252;2023-03-01T09:09:26;4.25;;;3.80;;
20619;SDS011;10469;42.720;23.252;2023-03-01T09:11:51;5.53;;;4.25;;
20619;SDS011;10469;42.720;23.252;2023-03-01T09:14:17;3.70;;;2.65;;
20619;SDS011;10469;42.720;23.252;2023-03-01T09:16:43;6.05;;;2.83;;
20619;SDS011;10469;42.720;23.252;2023-03-01T09:19:08;9.38;;;3.55;;
20619;SDS011;10469;42.720;23.252;2023-03-01T09:21:34;5.65;;;3.60;;
20619;SDS011;10469;42.720;23.252;2023-03-01T09:24:00;5.18;;;3.08;;
20619;SDS011;10469;42.720;23.252;2023-03-01T09:26:25;5.18;;;3.13;;
20619;SDS011;10469;42.720;23.252;2023-03-01T09:28:53;3.95;;;2.80;;
20619;SDS011;10469;42.720;23.252;2023-03-01T09:31:21;4.47;;;3.08;;
20619;SDS011;10469;42.720;23.252;2023-03-01T09:33:48;5.45;;;3.80;;
20619;SDS011;10469;42.720;23.252;2023-03-01T09:36:16;3.78;;;3.17;;
20619;SDS011;10469;42.720;23.252;2023-03-01T09:38:43;5.80;;;3.03;;
20619;SDS011;10469;42.720;23.252;2023-03-01T09:43:59;3.50;;;3.20;;
20619;SDS011;10469;42.720;23.252;2023-03-01T09:46:37;4.03;;;2.80;;
20619;SDS011;10469;42.720;23.252;2023-03-01T09:49:11;2.63;;;2.40;;
20619;SDS011;10469;42.720;23.252;2023-03-01T09:51:42;4.20;;;3.05;;
20619;SDS011;10469;42.720;23.252;2023-03-01T09:54:14;2.83;;;2.53;;
20619;SDS011;10469;42.720;23.252;2023-03-01T09:56:40;5.55;;;2.65;;
20619;SDS011;10469;42.720;23.252;2023-03-01T10:05:05;2.60;;;2.40;;
20619;SDS011;10469;42.720;23.252;2023-03-01T10:08:06;3.38;;;2.97;;
20619;SDS011;10469;42.720;23.252;2023-03-01T10:10:42;2.50;;;2.30;;
20619;SDS011;10469;42.720;23.252;2023-03-01T10:22:25;4.03;;;2.33;;
20619;SDS011;10469;42.720;23.252;2023-03-01T10:24:53;2.90;;;2.45;;
20619;SDS011;10469;42.720;23.252;2023-03-01T10:27:23;2.90;;;2.50;;
20619;SDS011;10469;42.720;23.252;2023-03-01T10:29:57;3.25;;;2.53;;
20619;SDS011;10469;42.720;23.252;2023-03-01T10:32:31;3.17;;;2.80;;
20619;SDS011;10469;42.720;23.252;2023-03-01T10:34:56;3.97;;;2.60;;
20619;SDS011;10469;42.720;23.252;2023-03-01T10:37:22;3.35;;;2.30;;
20619;SDS011;10469;42.720;23.252;2023-03-01T10:39:56;3.55;;;3.13;;
20619;SDS011;10469;42.720;23.252;2023-03-01T10:42:54;4.30;;;3.45;;
20619;SDS011;10469;42.720;23.252;2023-03-01T10:45:38;4.22;;;2.65;;
20619;SDS011;10469;42.720;23.252;2023-03-01T10:48:05;4.15;;;2.50;;
20619;SDS011;10469;42.720;23.252;2023-03-01T10:50:43;5.53;;;2.35;;
20619;SDS011;10469;42.720;23.252;2023-03-01T10:53:48;4.60;;;2.83;;
20619;SDS011;10469;42.720;23.252;2023-03-01T10:56:13;5.43;;;2.70;;
20619;SDS011;10469;42.720;23.252;2023-03-01T11:01:30;3.67;;;2.42;;
20619;SDS011;10469;42.720;23.252;2023-03-01T11:06:33;2.38;;;1.60;;
20619;SDS011;10469;42.720;23.252;2023-03-01T11:09:19;2.08;;;1.40;;
20619;SDS011;10469;42.720;23.252;2023-03-01T11:11:46;3.17;;;1.67;;
20619;SDS011;10469;42.720;23.252;2023-03-01T11:14:17;3.35;;;1.85;;
20619;SDS011;10469;42.720;23.252;2023-03-01T11:16:48;1.77;;;1.67;;
20619;SDS011;10469;42.720;23.252;2023-03-01T11:19:23;2.67;;;2.00;;
20619;SDS011;10469;42.720;23.252;2023-03-01T11:22:23;2.10;;;1.90;;
20619;SDS011;10469;42.720;23.252;2023-03-01T11:24:47;2.10;;;1.88;;
20619;SDS011;10469;42.720;23.252;2023-03-01T11:27:20;3.08;;;1.98;;
20619;SDS011;10469;42.720;23.252;2023-03-01T11:32:52;3.08;;;1.90;;
20619;SDS011;10469;42.720;23.252;2023-03-01T11:35:37;2.10;;;1.63;;
20619;SDS011;10469;42.720;23.252;2023-03-01T11:38:28;2.72;;;2.20;;
20619;SDS011;10469;42.720;23.252;2023-03-01T11:41:12;3.30;;;2.35;;
20619;SDS011;10469;42.720;23.252;2023-03-01T11:43:55;2.55;;;2.35;;
20619;SDS011;10469;42.720;23.252;2023-03-01T11:51:56;4.22;;;2.60;;
20619;SDS011;10469;42.720;23.252;2023-03-01T11:54:55;3.53;;;1.52;;
20619;SDS011;10469;42.720;23.252;2023-03-01T11:57:44;4.63;;;2.50;;
20619;SDS011;10469;42.720;23.252;2023-03-01T12:08:14;2.75;;;2.22;;
20619;SDS011;10469;42.720;23.252;2023-03-01T12:16:38;4.47;;;2.50;;
20619;SDS011;10469;42.720;23.252;2023-03-01T12:29:59;2.85;;;2.65;;
20619;SDS011;10469;42.720;23.252;2023-03-01T12:43:56;5.10;;;3.20;;
20619;SDS011;10469;42.720;23.252;2023-03-01T12:46:36;4.70;;;3.35;;
20619;SDS011;10469;42.720;23.252;2023-03-01T12:49:26;8.13;;;2.90;;
20619;SDS011;10469;42.720;23.252;2023-03-01T12:52:00;5.35;;;3.55;;
20619;SDS011;10469;42.720;23.252;2023-03-01T12:54:35;7.55;;;3.03;;
20619;SDS011;10469;42.720;23.252;2023-03-01T13:02:54;4.15;;;3.28;;
20619;SDS011;10469;42.720;23.252;2023-03-01T13:05:51;5.75;;;3.75;;
20619;SDS011;10469;42.720;23.252;2023-03-01T13:11:03;5.57;;;3.33;;
20619;SDS011;10469;42.720;23.252;2023-03-01T13:13:31;4.88;;;3.38;;
20619;SDS011;10469;42.720;23.252;2023-03-01T13:15:56;5.28;;;3.20;;
20619;SDS011;10469;42.720;23.252;2023-03-01T13:18:36;4.38;;;3.95;;
20619;SDS011;10469;42.720;23.252;2023-03-01T13:21:02;4.18;;;3.45;;
20619;SDS011;10469;42.720;23.252;2023-03-01T13:23:31;4.45;;;3.45;;
20619;SDS011;10469;42.720;23.252;2023-03-01T13:26:05;4.88;;;3.85;;
20619;SDS011;10469;42.720;23.252;2023-03-01T13:31:55;5.18;;;3.70;;
20619;SDS011;10469;42.720;23.252;2023-03-01T13:33:56;4.82;;;3.60;;
20619;SDS011;10469;42.720;23.252;2023-03-01T13:46:49;5.72;;;3.60;;
20619;SDS011;10469;42.720;23.252;2023-03-01T13:49:17;7.65;;;3.88;;
20619;SDS011;10469;42.720;23.252;2023-03-01T13:51:46;5.20;;;3.92;;
20619;SDS011;10469;42.720;23.252;2023-03-01T13:54:13;7.35;;;4.13;;
20619;SDS011;10469;42.720;23.252;2023-03-01T13:56:40;5.43;;;4.05;;
20619;SDS011;10469;42.720;23.252;2023-03-01T13:59:14;6.18;;;3.70;;
20619;SDS011;10469;42.720;23.252;2023-03-01T14:01:42;7.88;;;3.80;;
20619;SDS011;10469;42.720;23.252;2023-03-01T14:09:59;5.32;;;3.58;;
20619;SDS011;10469;42.720;23.252;2023-03-01T14:15:19;6.18;;;3.63;;
20619;SDS011;10469;42.720;23.252;2023-03-01T14:17:55;6.63;;;3.72;;
20619;SDS011;10469;42.720;23.252;2023-03-01T14:20:41;5.30;;;3.20;;
20619;SDS011;10469;42.720;23.252;2023-03-01T14:23:17;9.25;;;3.60;;
20619;SDS011;10469;42.720;23.252;2023-03-01T14:25:51;4.93;;;3.75;;
20619;SDS011;10469;42.720;23.252;2023-03-01T14:30:56;6.10;;;4.00;;
20619;SDS011;10469;42.720;23.252;2023-03-01T14:33:25;5.63;;;4.00;;
20619;SDS011;10469;42.720;23.252;2023-03-01T14:36:05;11.50;;;4.30;;
20619;SDS011;10469;42.720;23.252;2023-03-01T14:38:34;10.13;;;4.13;;
20619;SDS011;10469;42.720;23.252;2023-03-01T14:43:41;9.10;;;4.40;;
20619;SDS011;10469;42.720;23.252;2023-03-01T14:49:09;6.80;;;3.75;;
20619;SDS011;10469;42.720;23.252;2023-03-01T14:51:40;8.38;;;3.90;;
20619;SDS011;10469;42.720;23.252;2023-03-01T14:57:00;9.82;;;5.00;;
20619;SDS011;10469;42.720;23.252;2023-03-01T14:59:26;8.02;;;4.07;;
20619;SDS011;10469;42.720;23.252;2023-03-01T15:01:53;6.30;;;4.22;;
20619;SDS011;10469;42.720;23.252;2023-03-01T15:04:21;8.15;;;4.18;;
20619;SDS011;10469;42.720;23.252;2023-03-01T15:06:52;5.50;;;3.45;;
20619;SDS011;10469;42.720;23.252;2023-03-01T15:09:19;10.75;;;4.20;;
20619;SDS011;10469;42.720;23.252;2023-03-01T15:11:46;6.32;;;3.88;;
20619;SDS011;10469;42.720;23.252;2023-03-01T15:19:59;6.43;;;3.35;;
20619;SDS011;10469;42.720;23.252;2023-03-01T15:22:29;7.32;;;3.65;;
20619;SDS011;10469;42.720;23.252;2023-03-01T15:24:54;5.32;;;3.33;;
20619;SDS011;10469;42.720;23.252;2023-03-01T15:27:21;5.30;;;3.70;;
20619;SDS011;10469;42.720;23.252;2023-03-01T15:29:57;7.43;;;4.47;;
20619;SDS011;10469;42.720;23.252;2023-03-01T15:34:57;7.22;;;4.00;;
20619;SDS011;10469;42.720;23.252;2023-03-01T15:37:43;8.32;;;3.80;;
20619;SDS011;10469;42.720;23.252;2023-03-01T15:42:56;7.03;;;4.00;;
20619;SDS011;10469;42.720;23.252;2023-03-01T15:45:24;4.35;;;3.67;;
20619;SDS011;10469;42.720;23.252;2023-03-01T15:50:29;9.18;;;4.20;;
20619;SDS011;10469;42.720;23.252;2023-03-01T15:52:58;9.00;;;4.45;;
20619;SDS011;10469;42.720;23.252;2023-03-01T15:55:26;6.93;;;4.38;;
20619;SDS011;10469;42.720;23.252;2023-03-01T15:58:03;8.13;;;5.57;;
20619;SDS011;10469;42.720;23.252;2023-03-01T16:00:35;11.52;;;4.63;;
20619;SDS011;10469;42.720;23.252;2023-03-01T16:03:01;8.07;;;4.70;;
20619;SDS011;10469;42.720;23.252;2023-03-01T16:05:27;8.82;;;3.95;;
20619;SDS011;10469;42.720;23.252;2023-03-01T16:07:56;4.55;;;3.28;;
20619;SDS011;10469;42.720;23.252;2023-03-01T16:10:22;9.07;;;4.07;;
20619;SDS011;10469;42.720;23.252;2023-03-01T16:12:49;11.63;;;4.90;;
20619;SDS011;10469;42.720;23.252;2023-03-01T16:15:18;9.52;;;5.07;;
20619;SDS011;10469;42.720;23.252;2023-03-01T16:17:46;7.00;;;4.80;;
20619;SDS011;10469;42.720;23.252;2023-03-01T16:20:12;9.23;;;4.82;;
20619;SDS011;10469;42.720;23.252;2023-03-01T16:22:41;7.80;;;4.55;;
20619;SDS011;10469;42.720;23.252;2023-03-01T16:25:09;8.63;;;4.50;;
20619;SDS011;10469;42.720;23.252;2023-03-01T16:27:43;10.25;;;5.45;;
20619;SDS011;10469;42.720;23.252;2023-03-01T16:30:10;9.80;;;4.60;;
20619;SDS011;10469;42.720;23.252;2023-03-01T16:32:40;7.43;;;4.72;;
20619;SDS011;10469;42.720;23.252;2023-03-01T16:35:06;9.13;;;5.47;;
20619;SDS011;10469;42.720;23.252;2023-03-01T16:37:34;9.18;;;5.38;;
20619;SDS011;10469;42.720;23.252;2023-03-01T16:40:00;7.32;;;5.38;;
20619;SDS011;10469;42.720;23.252;2023-03-01T16:42:33;9.40;;;5.18;;
20619;SDS011;10469;42.720;23.252;2023-03-01T16:44:59;11.77;;;5.28;;
20619;SDS011;10469;42.720;23.252;2023-03-01T16:47:25;8.85;;;5.15;;
20619;SDS011;10469;42.720;23.252;2023-03-01T16:49:51;8.52;;;4.63;;
20619;SDS011;10469;42.720;23.252;2023-03-01T16:52:18;9.05;;;5.13;;
20619;SDS011;10469;42.720;23.252;2023-03-01T16:54:43;7.35;;;4.72;;
20619;SDS011;10469;42.720;23.252;2023-03-01T16:57:09;8.75;;;4.97;;
20619;SDS011;10469;42.720;23.252;2023-03-01T16:59:35;7.90;;;4.88;;
20619;SDS011;10469;42.720;23.252;2023-03-01T17:02:01;10.18;;;5.30;;
20619;SDS011;10469;42.720;23.252;2023-03-01T17:04:27;9.32;;;4.70;;
20619;SDS011;10469;42.720;23.252;2023-03-01T17:06:52;8.57;;;4.93;;